Time;durP1;ratioP1;P1;durP2;ratioP2;P2;SDS_P1;SDS_P2;PMS_P1;PMS_P2;Temp;Humidity;BMP_temperature;BMP_pressure;BME280_temperature;BME280_humidity;BME280_pressure;Samples;Min_cycle;Max_cycle;Signal;HPM_P1;HPM_P2
2022/10/21 00:00:50;;;;;;;;;;;;;;;11.87;59.31;100766.53;4974222;28;19957;-89
2022/10/21 00:03:15;;;;;;;;;;;;;;;11.80;59.26;100770.94;4973003;28;19925;-89
2022/10/21 00:05:40;;;;;;;;;;;;;;;11.63;59.70;100763.97;4985160;28;20296;-90
2022/10/21 00:08:06;;;;;;;;;;;;;;;11.55;60.21;100762.19;4975203;28;19922;-89
2022/10/21 00:10:31;;;;;;;;;;;;;;;11.51;60.21;100763.97;4992755;28;20009;-90
2022/10/21 00:12:56;;;;;;;;;;;;;;;11.59;59.85;100764.84;4971442;28;19993;-89
2022/10/21 00:15:22;;;;;;;;;;;;;;;11.52;60.15;100763.06;4972993;28;19914;-90
2022/10/21 00:17:47;;;;;;;;;;;;;;;11.46;60.06;100765.72;4992071;28;19946;-89
2022/10/21 00:20:12;;;;;;;;;;;;;;;11.43;60.58;100768.38;4992272;28;19914;-89
2022/10/21 00:22:38;;;;;;;;;;;;;;;11.43;60.07;100764.00;4992613;28;19921;-89
2022/10/21 00:25:03;;;;;;;;;;;;;;;11.48;59.77;100764.00;4992477;28;19917;-90
2022/10/21 00:27:29;;;;;;;;;;;;;;;11.36;59.62;100761.38;4976784;28;20060;-90
2022/10/21 00:29:54;;;;;;;;;;;;;;;11.32;59.96;100754.31;4956375;28;20013;-89
2022/10/21 00:32:19;;;;;;;;;;;;;;;11.24;60.14;100756.97;4955643;28;19921;-89
2022/10/21 00:34:45;;;;;;;;;;;;;;;11.29;59.81;100756.09;4955566;28;19925;-90
2022/10/21 00:37:11;;;;;;;;;;;;;;;11.18;60.17;100757.84;4971231;28;19998;-93
2022/10/21 00:39:37;;;;;;;;;;;;;;;11.14;60.19;100761.38;4955438;28;20046;-90
2022/10/21 00:42:04;;;;;;;;;;;;;;;11.09;60.29;100761.38;4972678;28;19910;-88
2022/10/21 00:44:29;;;;;;;;;;;;;;;11.11;60.19;100761.38;4972422;28;19922;-89
2022/10/21 00:47:03;;;;;;;;;;;;;;;11.07;60.12;100757.84;4980363;28;20447;-91
2022/10/21 00:49:40;;;;;;;;;;;;;;;11.08;60.48;100756.97;4972783;28;19960;-90
2022/10/21 00:52:08;;;;;;;;;;;;;;;11.06;60.44;100758.75;4972362;28;19928;-90
2022/10/21 00:54:33;;;;;;;;;;;;;;;11.08;60.45;100756.97;4972531;28;19914;-91
2022/10/21 00:56:59;;;;;;;;;;;;;;;11.04;60.45;100755.19;4972857;28;19921;-90
2022/10/21 00:59:26;;;;;;;;;;;;;;;11.06;60.42;100755.19;4972623;28;19920;-90
2022/10/21 01:01:51;;;;;;;;;;;;;;;11.04;60.38;100775.44;4958583;28;19980;-91
2022/10/21 01:04:17;;;;;;;;;;;;;;;11.00;60.20;100766.66;4987785;28;19918;-89
2022/10/21 01:06:44;;;;;;;;;;;;;;;10.93;60.47;100762.25;4984130;28;19918;-89
2022/10/21 01:09:12;;;;;;;;;;;;;;;10.87;60.86;100762.25;4979947;28;19921;-90
2022/10/21 01:11:43;;;;;;;;;;;;;;;10.77;60.87;100766.63;4980209;28;19925;-92
2022/10/21 01:14:26;;;;;;;;;;;;;;;10.78;60.68;100767.50;4991267;28;19922;-92
2022/10/21 01:17:00;;;;;;;;;;;;;;;10.82;60.86;100764.88;4973531;28;20290;-91
2022/10/21 01:19:41;;;;;;;;;;;;;;;10.76;61.11;100770.16;4999414;28;19972;-91
2022/10/21 01:22:22;;;;;;;;;;;;;;;10.72;61.18;100765.72;4979392;28;20023;-89
2022/10/21 01:24:59;;;;;;;;;;;;;;;10.74;61.11;100767.50;4996870;28;19971;-91
2022/10/21 01:27:34;;;;;;;;;;;;;;;10.73;61.22;100771.00;4995876;28;19925;-90
2022/10/21 01:30:05;;;;;;;;;;;;;;;10.69;60.65;100769.28;4991386;28;19922;-92
2022/10/21 01:32:49;;;;;;;;;;;;;;;10.59;60.59;100777.16;4992057;28;19925;-91
2022/10/21 01:35:14;;;;;;;;;;;;;;;10.57;60.89;100775.38;4977482;28;19917;-90
2022/10/21 01:37:52;;;;;;;;;;;;;;;10.44;61.36;100785.91;4971957;28;19918;-92
2022/10/21 01:40:21;;;;;;;;;;;;;;;10.43;61.71;100778.91;4972273;28;19910;-91
2022/10/21 01:42:57;;;;;;;;;;;;;;;10.43;61.47;100781.53;4971265;28;20375;-91
2022/10/21 01:45:25;;;;;;;;;;;;;;;10.37;62.42;100782.38;4972300;28;19914;-90
2022/10/21 01:47:53;;;;;;;;;;;;;;;10.48;61.37;100780.66;4972801;28;19914;-90
2022/10/21 01:50:22;;;;;;;;;;;;;;;10.47;61.75;100780.63;4986183;28;19921;-90
2022/10/21 01:52:50;;;;;;;;;;;;;;;10.34;61.37;100785.00;4993466;28;20033;-90
2022/10/21 01:55:18;;;;;;;;;;;;;;;10.15;62.26;100784.91;4994942;28;19914;-90
2022/10/21 01:57:48;;;;;;;;;;;;;;;10.13;62.12;100781.41;4995192;28;19913;-89
2022/10/21 02:00:13;;;;;;;;;;;;;;;10.12;62.85;100784.88;4994488;28;19918;-90
2022/10/21 02:02:44;;;;;;;;;;;;;;;10.10;62.93;100780.47;4995468;28;19925;-89
2022/10/21 02:05:14;;;;;;;;;;;;;;;10.08;62.92;100782.22;4993165;28;19930;-90
2022/10/21 02:07:39;;;;;;;;;;;;;;;10.13;62.84;100785.75;5000601;28;19913;-89
2022/10/21 02:10:05;;;;;;;;;;;;;;;10.11;63.46;100792.78;5013893;28;19920;-89
2022/10/21 02:12:32;;;;;;;;;;;;;;;10.11;63.14;100790.16;5001351;28;19956;-89
2022/10/21 02:14:59;;;;;;;;;;;;;;;10.10;63.25;100796.28;4977289;28;19952;-89
2022/10/21 02:17:26;;;;;;;;;;;;;;;10.15;62.86;100790.19;4994789;28;19914;-90
2022/10/21 02:19:52;;;;;;;;;;;;;;;10.10;62.51;100793.66;4994102;28;20399;-90
2022/10/21 02:22:19;;;;;;;;;;;;;;;9.94;61.92;100782.16;4994140;28;19922;-89
2022/10/21 02:24:52;;;;;;;;;;;;;;;9.83;61.48;100797.94;4994320;28;19920;-89
2022/10/21 02:27:18;;;;;;;;;;;;;;;9.68;60.70;100796.97;4994148;28;19914;-90
2022/10/21 02:29:46;;;;;;;;;;;;;;;9.41;60.36;100795.03;4993841;28;19918;-89
2022/10/21 02:32:34;;;;;;;;;;;;;;;9.11;61.63;100808.81;4994294;28;19929;-89
2022/10/21 02:34:59;;;;;;;;;;;;;;;8.91;62.58;100806.91;4971522;28;19925;-90
2022/10/21 02:37:37;;;;;;;;;;;;;;;8.64;63.21;100812.75;4973294;28;19918;-90
2022/10/21 02:40:02;;;;;;;;;;;;;;;8.93;63.55;100813.06;4964775;28;20372;-90
2022/10/21 02:42:30;;;;;;;;;;;;;;;9.11;63.38;100806.19;4974577;28;20016;-90
2022/10/21 02:44:57;;;;;;;;;;;;;;;9.08;64.21;100814.06;4974768;28;19948;-93
2022/10/21 02:47:24;;;;;;;;;;;;;;;9.16;64.19;100808.84;4983515;28;19925;-93
2022/10/21 02:49:50;;;;;;;;;;;;;;;9.28;63.89;100815.13;4975223;28;19925;-93
2022/10/21 02:52:15;;;;;;;;;;;;;;;9.29;64.10;100816.00;4974426;28;19914;-93
2022/10/21 02:54:40;;;;;;;;;;;;;;;9.36;64.21;100817.81;4974748;28;20403;-92
2022/10/21 02:57:06;;;;;;;;;;;;;;;9.34;63.54;100813.41;4973211;28;19921;-90
2022/10/21 02:59:31;;;;;;;;;;;;;;;9.41;62.92;100812.59;4981191;28;19918;-90
2022/10/21 03:01:57;;;;;;;;;;;;;;;9.36;62.94;100822.19;4977612;28;19977;-91
2022/10/21 03:04:22;;;;;;;;;;;;;;;9.28;62.83;100823.03;4985281;28;19980;-91
2022/10/21 03:06:48;;;;;;;;;;;;;;;9.38;62.61;100823.09;4974911;28;19922;-91
2022/10/21 03:09:13;;;;;;;;;;;;;;;9.21;62.73;100821.19;4973834;28;20017;-91
2022/10/21 03:11:38;;;;;;;;;;;;;;;9.31;62.28;100823.06;4974235;28;19920;-92
2022/10/21 03:14:03;;;;;;;;;;;;;;;9.38;62.97;100829.25;4974264;28;20009;-91
2022/10/21 03:16:29;;;;;;;;;;;;;;;9.37;63.67;100837.13;4956984;28;20339;-91
2022/10/21 03:18:54;;;;;;;;;;;;;;;9.58;63.23;100821.47;4980888;28;19921;-90
2022/10/21 03:21:19;;;;;;;;;;;;;;;9.53;63.69;100823.22;4993510;28;19960;-91
2022/10/21 03:23:45;;;;;;;;;;;;;;;9.53;63.76;100833.75;4979281;28;19918;-91
2022/10/21 03:26:10;;;;;;;;;;;;;;;9.54;63.81;100824.97;4976025;28;19922;-92
2022/10/21 03:28:36;;;;;;;;;;;;;;;9.47;64.55;100823.16;4976631;28;19960;-91
2022/10/21 03:31:01;;;;;;;;;;;;;;;9.49;64.46;100824.94;4993284;28;19968;-91
2022/10/21 03:33:26;;;;;;;;;;;;;;;9.43;65.03;100822.25;4988844;28;20471;-91
2022/10/21 03:35:52;;;;;;;;;;;;;;;9.64;63.83;100832.06;4974989;28;20363;-92
2022/10/21 03:38:17;;;;;;;;;;;;;;;9.64;63.93;100829.44;4978742;28;19960;-91
2022/10/21 03:40:42;;;;;;;;;;;;;;;9.72;64.60;100826.84;4976496;28;20305;-88
2022/10/21 03:43:08;;;;;;;;;;;;;;;9.75;64.85;100820.72;4986253;28;20276;-89
2022/10/21 03:45:33;;;;;;;;;;;;;;;9.69;64.47;100829.47;4978281;28;19914;-89
2022/10/21 03:47:58;;;;;;;;;;;;;;;9.74;64.92;100825.09;4973625;28;20391;-89
2022/10/21 03:50:24;;;;;;;;;;;;;;;9.79;64.39;100828.66;4973460;28;19925;-89
2022/10/21 03:52:49;;;;;;;;;;;;;;;9.87;64.95;100828.72;4955921;28;20371;-89
2022/10/21 03:55:16;;;;;;;;;;;;;;;9.84;65.12;100832.19;4973852;28;20373;-85
2022/10/21 03:57:41;;;;;;;;;;;;;;;9.83;64.89;100824.28;4972839;28;19973;-87
2022/10/21 04:00:07;;;;;;;;;;;;;;;9.88;65.20;100830.44;4970784;28;19918;-90
2022/10/21 04:02:32;;;;;;;;;;;;;;;9.89;64.87;100826.94;4980200;28;19924;-87
2022/10/21 04:04:57;;;;;;;;;;;;;;;9.91;65.04;100832.22;4980567;28;19921;-85
2022/10/21 04:07:23;;;;;;;;;;;;;;;9.92;65.37;100829.59;4991809;28;19913;-87
2022/10/21 04:09:48;;;;;;;;;;;;;;;9.94;64.85;100826.97;4975118;28;19924;-91
2022/10/21 04:12:13;;;;;;;;;;;;;;;9.82;64.99;100831.31;4958344;28;19922;-85
2022/10/21 04:14:39;;;;;;;;;;;;;;;9.84;65.30;100839.22;4995193;28;19913;-85
2022/10/21 04:17:04;;;;;;;;;;;;;;;9.88;65.07;100840.13;4974077;28;19914;-85
2022/10/21 04:19:29;;;;;;;;;;;;;;;10.01;64.85;100842.84;4974556;28;19914;-85
2022/10/21 04:21:54;;;;;;;;;;;;;;;9.91;65.55;100833.09;4984019;28;19918;-86
2022/10/21 04:24:20;;;;;;;;;;;;;;;9.82;65.83;100841.84;4992274;28;20304;-85
2022/10/21 04:26:45;;;;;;;;;;;;;;;9.83;66.04;100838.31;4992055;28;20008;-88
2022/10/21 04:29:10;;;;;;;;;;;;;;;9.88;65.53;100851.53;4991507;28;20379;-91
2022/10/21 04:31:36;;;;;;;;;;;;;;;10.17;65.25;100845.56;4987157;28;19987;-89
2022/10/21 04:34:01;;;;;;;;;;;;;;;10.14;65.28;100841.13;4993379;28;20360;-92
2022/10/21 04:36:26;;;;;;;;;;;;;;;10.27;65.58;100842.09;4968844;28;19925;-92
2022/10/21 04:38:52;;;;;;;;;;;;;;;10.43;65.10;100837.78;4980043;28;19924;-94
2022/10/21 04:41:18;;;;;;;;;;;;;;;10.48;65.13;100837.81;4978242;28;19922;-96
2022/10/21 04:43:43;;;;;;;;;;;;;;;10.52;64.89;100834.31;4976242;28;19924;-95
2022/10/21 04:46:10;;;;;;;;;;;;;;;10.43;64.96;100842.19;4965861;28;19981;-94
2022/10/21 04:48:36;;;;;;;;;;;;;;;10.49;65.05;100836.94;4958163;28;19922;-95
2022/10/21 04:51:01;;;;;;;;;;;;;;;10.46;64.88;100840.44;4956061;28;20289;-92
2022/10/21 04:53:26;;;;;;;;;;;;;;;10.47;64.85;100836.94;4996492;28;20002;-95
2022/10/21 04:55:52;;;;;;;;;;;;;;;10.66;64.62;100842.25;4981072;28;19982;-90
2022/10/21 04:58:18;;;;;;;;;;;;;;;10.52;65.26;100845.75;4991208;28;19918;-92
2022/10/21 05:00:43;;;;;;;;;;;;;;;10.55;65.46;100850.13;4996321;28;19922;-90
2022/10/21 05:03:08;;;;;;;;;;;;;;;10.60;65.57;100848.41;4998143;28;19902;-94
2022/10/21 05:05:34;;;;;;;;;;;;;;;10.56;64.98;100846.63;4998249;28;19957;-96
2022/10/21 05:07:59;;;;;;;;;;;;;;;10.57;65.41;100846.63;4988834;28;19957;-94
2022/10/21 05:10:24;;;;;;;;;;;;;;;10.74;65.00;100851.97;4977360;28;20013;-95
2022/10/21 05:12:50;;;;;;;;;;;;;;;10.76;65.09;100854.59;4959248;28;20355;-89
2022/10/21 05:15:15;;;;;;;;;;;;;;;10.87;64.95;100859.91;4971334;28;20377;-89
2022/10/21 05:17:42;;;;;;;;;;;;;;;10.86;64.45;100852.84;4972295;28;19918;-88
2022/10/21 05:20:08;;;;;;;;;;;;;;;10.90;65.48;100858.16;4971517;28;19965;-92
2022/10/21 05:22:33;;;;;;;;;;;;;;;11.15;65.67;100860.81;4955299;28;19921;-92
2022/10/21 05:24:58;;;;;;;;;;;;;;;11.44;65.09;100862.63;4972669;28;19928;-96
2022/10/21 05:27:24;;;;;;;;;;;;;;;11.68;64.18;100858.19;4958972;28;19918;-96
2022/10/21 05:29:49;;;;;;;;;;;;;;;11.69;63.78;100860.84;4970170;28;19921;-95
2022/10/21 05:32:14;;;;;;;;;;;;;;;11.77;63.35;100872.31;4964859;28;20451;-95
2022/10/21 05:34:40;;;;;;;;;;;;;;;11.92;62.85;100876.69;4998645;28;19913;-95
2022/10/21 05:37:05;;;;;;;;;;;;;;;11.86;62.39;100876.69;4976482;28;20392;-96
2022/10/21 05:39:30;;;;;;;;;;;;;;;11.85;62.49;100880.22;4980441;28;19924;-94
2022/10/21 05:41:56;;;;;;;;;;;;;;;11.99;61.97;100883.75;4995704;28;19905;-95
2022/10/21 05:44:21;;;;;;;;;;;;;;;11.96;62.18;100888.19;4976450;28;19945;-96
2022/10/21 05:46:46;;;;;;;;;;;;;;;12.03;62.39;100881.97;4963998;28;19914;-96
2022/10/21 05:49:12;;;;;;;;;;;;;;;12.32;62.27;100887.19;4962520;28;19918;-96
2022/10/21 05:51:37;;;;;;;;;;;;;;;12.47;61.57;100883.63;4961684;28;19950;-96
2022/10/21 05:54:04;;;;;;;;;;;;;;;12.64;61.03;100882.66;4967874;28;19981;-96
2022/10/21 05:56:29;;;;;;;;;;;;;;;12.77;60.34;100888.78;4959534;28;19925;-95
2022/10/21 05:58:55;;;;;;;;;;;;;;;12.73;60.34;100887.94;4973138;28;19917;-93
2022/10/21 06:01:20;;;;;;;;;;;;;;;12.84;59.35;100887.88;4989544;28;19922;-94
2022/10/21 06:03:45;;;;;;;;;;;;;;;12.97;59.09;100892.19;4983562;28;19914;-96
2022/10/21 06:06:11;;;;;;;;;;;;;;;13.08;58.59;100900.97;4959230;28;19926;-92
2022/10/21 06:08:37;;;;;;;;;;;;;;;13.01;58.60;100901.03;4965275;28;19918;-93
2022/10/21 06:11:03;;;;;;;;;;;;;;;13.35;58.54;100898.19;4962302;28;19914;-95
2022/10/21 06:13:29;;;;;;;;;;;;;;;13.34;58.48;100901.72;4982374;28;19929;-95
2022/10/21 06:15:54;;;;;;;;;;;;;;;13.51;58.06;100897.16;5005211;28;19925;-95
2022/10/21 06:18:20;;;;;;;;;;;;;;;13.65;57.20;100909.44;4993713;28;19910;-96
2022/10/21 06:20:47;;;;;;;;;;;;;;;13.69;56.67;100906.75;5017236;28;19940;-95
2022/10/21 06:23:14;;;;;;;;;;;;;;;13.76;57.20;100903.16;5010364;28;19913;-96
2022/10/21 06:25:39;;;;;;;;;;;;;;;13.49;57.06;100906.91;4994888;28;19910;-96
2022/10/21 06:28:05;;;;;;;;;;;;;;;13.77;56.30;100906.66;4989529;28;19920;-95
2022/10/21 06:30:30;;;;;;;;;;;;;;;13.84;55.88;100904.84;5004511;28;19921;-95
2022/10/21 06:32:56;;;;;;;;;;;;;;;13.90;56.12;100910.09;4988449;28;19920;-96
2022/10/21 06:35:21;;;;;;;;;;;;;;;14.13;55.50;100907.19;4995481;28;19977;-96
2022/10/21 06:37:48;;;;;;;;;;;;;;;14.14;54.36;100915.16;5008138;28;19914;-96
2022/10/21 06:40:13;;;;;;;;;;;;;;;14.09;54.95;100906.38;4997244;28;19920;-96
2022/10/21 06:42:39;;;;;;;;;;;;;;;14.06;54.72;100910.84;4999721;28;19898;-96
2022/10/21 06:45:04;;;;;;;;;;;;;;;14.11;54.90;100915.19;4999154;28;19905;-96
2022/10/21 06:47:31;;;;;;;;;;;;;;;14.00;54.86;100913.56;4992433;28;19920;-96
2022/10/21 06:49:56;;;;;;;;;;;;;;;14.18;54.12;100915.13;4985421;28;19913;-96
2022/10/21 06:52:22;;;;;;;;;;;;;;;14.22;55.06;100911.53;5001889;28;20431;-94
2022/10/21 06:54:47;;;;;;;;;;;;;;;14.52;54.34;100910.34;4977806;28;19921;-96
2022/10/21 06:57:12;;;;;;;;;;;;;;;14.64;53.86;100912.88;4977271;28;20011;-92
2022/10/21 06:59:38;;;;;;;;;;;;;;;14.54;53.47;100919.16;4983247;28;19914;-96
2022/10/21 07:02:03;;;;;;;;;;;;;;;14.72;53.94;100919.84;4980222;28;20344;-93
2022/10/21 07:04:28;;;;;;;;;;;;;;;14.79;52.77;100913.56;4977497;28;19959;-94
2022/10/21 07:06:54;;;;;;;;;;;;;;;14.87;53.16;100917.00;4977174;28;19948;-93
2022/10/21 07:09:19;;;;;;;;;;;;;;;14.85;52.98;100917.00;4978191;28;20292;-93
2022/10/21 07:11:44;;;;;;;;;;;;;;;14.77;53.10;100912.72;4980707;28;19913;-93
2022/10/21 07:14:11;;;;;;;;;;;;;;;14.74;52.68;100908.31;4979606;28;20092;-94
2022/10/21 07:16:37;;;;;;;;;;;;;;;15.22;52.49;100908.53;4990617;28;19988;-94
2022/10/21 07:19:03;;;;;;;;;;;;;;;15.34;51.78;100906.59;4992106;28;19914;-93
2022/10/21 07:21:29;;;;;;;;;;;;;;;15.30;51.05;100911.06;4998603;28;20008;-94
2022/10/21 07:23:56;;;;;;;;;;;;;;;15.31;51.81;100901.34;4981557;28;19939;-96
2022/10/21 07:26:22;;;;;;;;;;;;;;;14.93;52.02;100905.41;4982680;28;20384;-95
2022/10/21 07:28:48;;;;;;;;;;;;;;;15.11;51.26;100906.94;4980576;28;19913;-94
2022/10/21 07:31:14;;;;;;;;;;;;;;;15.38;51.33;100897.66;4976943;28;19929;-94
2022/10/21 07:33:43;;;;;;;;;;;;;;;15.44;51.27;100899.34;4978029;28;19921;-96
2022/10/21 07:36:11;;;;;;;;;;;;;;;15.83;50.40;100896.94;4997223;28;21086;-96
2022/10/21 07:38:42;;;;;;;;;;;;;;;16.22;49.29;100900.66;4981151;28;19913;-96
2022/10/21 07:41:15;;;;;;;;;;;;;;;16.72;48.46;100897.00;4985486;28;20323;-96
2022/10/21 07:43:42;;;;;;;;;;;;;;;17.02;47.83;100895.47;4985540;28;19937;-96
2022/10/21 07:46:07;;;;;;;;;;;;;;;17.08;47.19;100891.81;4983191;28;19914;-96
2022/10/21 07:48:32;;;;;;;;;;;;;;;16.92;47.73;100885.97;4984268;28;19980;-96
2022/10/21 07:51:04;;;;;;;;;;;;;;;16.90;48.51;100886.00;4984741;28;20406;-96
2022/10/21 07:53:29;;;;;;;;;;;;;;;17.07;47.35;100885.59;4986863;28;19910;-95
2022/10/21 07:56:03;;;;;;;;;;;;;;;17.01;47.43;100885.75;4984328;28;19917;-96
2022/10/21 07:58:29;;;;;;;;;;;;;;;17.09;47.52;100885.56;5001677;28;19977;-96
2022/10/21 08:00:59;;;;;;;;;;;;;;;17.08;47.24;100890.00;4983205;28;20769;-96
2022/10/21 08:03:24;;;;;;;;;;;;;;;16.91;47.14;100889.53;4979863;28;20012;-95
2022/10/21 08:05:50;;;;;;;;;;;;;;;16.89;48.00;100889.56;4981413;28;19949;-96
2022/10/21 08:08:16;;;;;;;;;;;;;;;16.97;48.67;100886.72;4997113;28;19917;-96
2022/10/21 08:10:41;;;;;;;;;;;;;;;17.06;47.85;100888.31;4981113;28;19914;-96
2022/10/21 08:13:07;;;;;;;;;;;;;;;17.03;46.95;100883.03;4983499;28;19921;-94
2022/10/21 08:15:32;;;;;;;;;;;;;;;17.15;47.29;100885.44;4982298;28;19914;-96
2022/10/21 08:17:57;;;;;;;;;;;;;;;17.14;46.64;100879.19;4981044;28;19918;-94
2022/10/21 08:20:23;;;;;;;;;;;;;;;16.59;48.56;100875.06;4976196;28;19914;-95
2022/10/21 08:22:48;;;;;;;;;;;;;;;16.35;49.37;100881.78;4977705;28;19929;-95
2022/10/21 08:25:15;;;;;;;;;;;;;;;16.19;50.55;100879.44;4976559;28;19960;-96
2022/10/21 08:27:41;;;;;;;;;;;;;;;16.40;50.85;100880.78;4976076;28;19917;-96
2022/10/21 08:30:06;;;;;;;;;;;;;;;16.41;49.96;100882.53;4976033;28;19968;-94
2022/10/21 08:32:31;;;;;;;;;;;;;;;16.67;49.02;100883.78;4978547;28;19913;-96
2022/10/21 08:34:57;;;;;;;;;;;;;;;16.92;48.38;100885.97;4981594;28;19914;-96
2022/10/21 08:37:22;;;;;;;;;;;;;;;16.62;48.93;100875.91;4975739;28;19920;-95
2022/10/21 08:39:48;;;;;;;;;;;;;;;16.13;50.08;100879.56;4993302;28;19928;-95
2022/10/21 08:42:15;;;;;;;;;;;;;;;16.66;49.89;100879.38;4976467;28;19914;-95
2022/10/21 08:44:43;;;;;;;;;;;;;;;16.80;49.36;100882.59;4977840;28;19914;-95
2022/10/21 08:47:15;;;;;;;;;;;;;;;16.95;48.17;100876.09;4985844;28;19913;-95
2022/10/21 08:49:47;;;;;;;;;;;;;;;16.72;48.55;100871.25;4984108;28;19914;-96
2022/10/21 08:52:15;;;;;;;;;;;;;;;16.50;49.44;100869.94;5003000;28;20381;-96
2022/10/21 08:54:46;;;;;;;;;;;;;;;16.36;49.94;100872.88;4983344;28;19914;-96
2022/10/21 08:57:15;;;;;;;;;;;;;;;16.52;49.45;100868.13;5005009;28;19988;-95
2022/10/21 08:59:41;;;;;;;;;;;;;;;16.49;48.80;100869.06;4996119;28;19920;-95
2022/10/21 09:17:05;;;;;;;;;;;;;;;16.27;49.69;100850.00;4968546;29;19985;-96
2022/10/21 09:19:51;;;;;;;;;;;;;;;16.53;49.70;100848.56;4952516;28;20374;-96
2022/10/21 09:22:36;;;;;;;;;;;;;;;16.65;48.84;100857.19;4959734;28;20456;-96
2022/10/21 09:25:21;;;;;;;;;;;;;;;17.00;48.38;100847.53;4951959;29;20345;-96
2022/10/21 09:28:08;;;;;;;;;;;;;;;17.21;47.69;100847.97;4960528;29;19914;-96
2022/10/21 09:30:47;;;;;;;;;;;;;;;16.95;48.81;100852.09;4962207;28;19918;-96
2022/10/21 09:33:27;;;;;;;;;;;;;;;17.18;47.51;100846.22;4959913;28;19914;-96
2022/10/21 09:39:13;;;;;;;;;;;;;;;16.51;49.37;100843.25;4969570;29;19973;-96
2022/10/21 09:41:40;;;;;;;;;;;;;;;16.20;50.09;100837.72;4954783;28;20013;-92
2022/10/21 09:44:34;;;;;;;;;;;;;;;16.11;50.79;100830.78;4944591;29;19922;-95
2022/10/21 09:47:00;;;;;;;;;;;;;;;16.28;50.20;100830.44;4937269;29;19923;-92
2022/10/21 09:49:29;;;;;;;;;;;;;;;16.56;49.60;100827.19;4951585;28;20301;-92
2022/10/21 09:51:56;;;;;;;;;;;;;;;16.70;49.85;100833.09;4953308;28;20776;-89
2022/10/21 09:55:00;;;;;;;;;;;;;;;16.71;49.31;100825.97;4958381;29;20292;-96
2022/10/21 09:57:55;;;;;;;;;;;;;;;16.67;48.96;100824.28;4917521;29;19919;-96
2022/10/21 10:00:39;;;;;;;;;;;;;;;17.06;47.99;100811.00;4955663;29;20001;-96
2022/10/21 10:03:07;;;;;;;;;;;;;;;17.16;48.47;100809.84;4957317;29;19922;-92
2022/10/21 10:05:35;;;;;;;;;;;;;;;16.91;48.14;100809.56;4958039;28;19950;-95
2022/10/21 10:08:22;;;;;;;;;;;;;;;17.31;47.27;100804.13;4956852;28;19990;-95
2022/10/21 10:10:47;;;;;;;;;;;;;;;17.06;47.99;100795.88;4948408;28;19914;-93
2022/10/21 10:13:19;;;;;;;;;;;;;;;17.31;47.77;100789.94;4955798;29;19914;-95
2022/10/21 10:15:46;;;;;;;;;;;;;;;17.26;47.82;100784.72;4957501;28;20364;-94
2022/10/21 10:18:25;;;;;;;;;;;;;;;17.17;47.90;100779.63;4972207;28;19902;-94
2022/10/21 10:21:09;;;;;;;;;;;;;;;17.43;47.38;100780.75;4980927;29;19998;-95
2022/10/21 10:23:55;;;;;;;;;;;;;;;17.43;47.35;100770.94;4980501;29;19934;-94
2022/10/21 10:26:23;;;;;;;;;;;;;;;17.33;46.99;100767.66;4978848;28;19909;-96
2022/10/21 10:28:52;;;;;;;;;;;;;;;17.09;47.21;100770.94;4978522;29;19925;-96
2022/10/21 10:31:36;;;;;;;;;;;;;;;17.20;46.82;100760.00;4977843;29;19909;-94
2022/10/21 10:34:07;;;;;;;;;;;;;;;17.17;47.67;100752.97;4971494;28;19923;-95
2022/10/21 10:36:35;;;;;;;;;;;;;;;17.31;47.58;100755.28;4954629;29;19921;-95
2022/10/21 10:39:03;;;;;;;;;;;;;;;17.46;46.71;100754.00;4957025;29;19915;-96
2022/10/21 10:41:32;;;;;;;;;;;;;;;17.61;47.12;100739.34;4954569;29;19914;-93
2022/10/21 10:43:58;;;;;;;;;;;;;;;17.55;46.67;100740.41;4957457;29;19974;-94
2022/10/21 10:46:31;;;;;;;;;;;;;;;17.37;46.88;100736.44;4954128;29;20570;-94
2022/10/21 10:49:38;;;;;;;;;;;;;;;17.51;46.73;100734.28;4960516;29;19918;-96
2022/10/21 10:52:35;;;;;;;;;;;;;;;17.44;46.70;100737.16;4964422;28;19922;-96
2022/10/21 10:55:26;;;;;;;;;;;;;;;17.45;46.95;100733.56;4966049;28;20391;-96
2022/10/21 10:57:55;;;;;;;;;;;;;;;17.52;46.08;100728.03;4961064;29;19941;-96
2022/10/21 11:00:21;;;;;;;;;;;;;;;17.69;47.06;100722.22;4956155;29;19918;-95
2022/10/21 11:09:33;;;;;;;;;;;;;;;18.12;45.88;100700.56;4959899;29;20364;-95
2022/10/21 11:12:01;;;;;;;;;;;;;;;17.72;45.90;100705.25;4954729;29;19946;-95
2022/10/21 11:14:26;;;;;;;;;;;;;;;17.77;46.01;100699.78;4954177;28;19918;-91
2022/10/21 11:17:21;;;;;;;;;;;;;;;17.82;45.83;100698.72;4953620;28;19985;-96
2022/10/21 11:19:50;;;;;;;;;;;;;;;18.06;46.00;100693.63;4953928;29;19919;-94
2022/10/21 11:28:35;;;;;;;;;;;;;;;18.16;44.37;100683.53;4957137;28;19922;-94
2022/10/21 11:31:07;;;;;;;;;;;;;;;18.32;44.20;100678.59;4952785;29;19926;-91
2022/10/21 11:33:59;;;;;;;;;;;;;;;18.49;43.93;100672.72;4951858;29;19949;-91
2022/10/21 11:36:24;;;;;;;;;;;;;;;18.13;44.41;100672.94;4950010;28;19969;-90
2022/10/21 11:38:51;;;;;;;;;;;;;;;17.87;45.19;100677.25;4951872;29;20392;-90
2022/10/21 11:41:16;;;;;;;;;;;;;;;18.07;44.80;100676.66;4952637;29;19914;-92
2022/10/21 11:43:46;;;;;;;;;;;;;;;18.05;45.32;100660.69;4951942;29;20415;-92
2022/10/21 11:46:20;;;;;;;;;;;;;;;18.31;44.72;100652.81;4951195;29;19918;-92
2022/10/21 11:48:48;;;;;;;;;;;;;;;18.53;44.25;100653.00;4952097;29;19921;-92
2022/10/21 11:51:15;;;;;;;;;;;;;;;18.30;44.26;100633.22;4951215;29;20038;-92
2022/10/21 11:53:59;;;;;;;;;;;;;;;18.19;44.69;100646.94;4951148;29;20308;-95
2022/10/21 11:56:31;;;;;;;;;;;;;;;18.32;44.57;100647.44;4964104;28;19965;-91
2022/10/21 11:59:11;;;;;;;;;;;;;;;18.33;43.71;100634.94;4953075;28;19925;-91
2022/10/21 12:01:36;;;;;;;;;;;;;;;18.22;43.88;100641.50;4971025;28;19960;-90
2022/10/21 12:04:35;;;;;;;;;;;;;;;18.08;44.21;100633.03;4970842;28;19968;-91
2022/10/21 12:07:00;;;;;;;;;;;;;;;18.26;43.86;100623.59;4938063;28;19925;-90
2022/10/21 12:09:29;;;;;;;;;;;;;;;18.38;43.82;100615.19;4971355;28;19918;-87
2022/10/21 12:12:07;;;;;;;;;;;;;;;18.58;44.04;100621.66;4969265;28;19945;-94
2022/10/21 12:14:39;;;;;;;;;;;;;;;18.66;43.87;100613.38;4952501;28;19924;-92
2022/10/21 12:17:07;;;;;;;;;;;;;;;18.80;43.05;100608.44;4952242;28;20376;-90
2022/10/21 12:19:34;;;;;;;;;;;;;;;18.88;43.41;100610.88;4969184;28;19914;-91
2022/10/21 12:22:01;;;;;;;;;;;;;;;19.16;42.29;100615.25;4968210;28;19922;-91
2022/10/21 12:24:38;;;;;;;;;;;;;;;18.88;42.75;100608.22;4951590;28;19965;-92
2022/10/21 12:27:15;;;;;;;;;;;;;;;18.72;43.32;100610.50;4969227;28;19914;-90
2022/10/21 12:29:41;;;;;;;;;;;;;;;18.92;42.97;100607.16;4968993;28;19924;-90
2022/10/21 12:32:25;;;;;;;;;;;;;;;18.86;42.59;100607.38;4969318;28;19914;-90
2022/10/21 12:34:52;;;;;;;;;;;;;;;18.88;42.53;100601.06;4969186;28;19914;-88
2022/10/21 12:37:36;;;;;;;;;;;;;;;18.97;42.43;100602.53;4969916;28;19965;-90
2022/10/21 12:40:09;;;;;;;;;;;;;;;18.95;42.36;100599.94;4971854;28;20325;-89
2022/10/21 12:42:34;;;;;;;;;;;;;;;19.11;41.57;100600.25;4969736;28;19922;-88
2022/10/21 12:45:00;;;;;;;;;;;;;;;18.96;41.56;100606.13;4970065;28;19921;-90
2022/10/21 12:47:31;;;;;;;;;;;;;;;18.93;41.63;100599.09;4973227;28;19924;-91
2022/10/21 12:50:15;;;;;;;;;;;;;;;19.00;43.11;100597.09;4954403;28;19977;-91
2022/10/21 12:52:41;;;;;;;;;;;;;;;19.22;41.94;100598.97;4970652;28;19948;-89
2022/10/21 12:55:17;;;;;;;;;;;;;;;19.35;42.28;100599.41;4952042;28;19957;-93
2022/10/21 12:57:43;;;;;;;;;;;;;;;19.57;41.51;100594.09;4969865;28;20004;-92
2022/10/21 13:00:21;;;;;;;;;;;;;;;19.62;40.92;100587.66;4969740;28;20054;-93
2022/10/21 13:02:56;;;;;;;;;;;;;;;19.70;40.69;100589.19;4969784;28;19918;-90
2022/10/21 13:05:37;;;;;;;;;;;;;;;19.56;41.58;100581.69;4970756;28;19917;-93
2022/10/21 13:08:26;;;;;;;;;;;;;;;19.50;40.71;100583.63;4953197;28;19914;-92
2022/10/21 13:11:03;;;;;;;;;;;;;;;19.48;41.26;100581.97;4971242;28;19924;-92
2022/10/21 13:13:35;;;;;;;;;;;;;;;19.36;41.17;100577.94;4968816;28;19940;-91
2022/10/21 13:16:20;;;;;;;;;;;;;;;19.10;41.52;100573.56;4968120;28;19924;-90
2022/10/21 13:18:59;;;;;;;;;;;;;;;19.11;41.19;100578.84;4969006;28;19944;-90